sensor_id;sensor_type;location;lat;lon;timestamp;P1;durP1;ratioP1;P2;durP2;ratioP2
8397;SDS011;4236;54.504;9.588;2022-08-18T00:02:11;10.00;;;6.17;;
8397;SDS011;4236;54.504;9.588;2022-08-18T00:04:43;6.57;;;6.10;;
8397;SDS011;4236;54.504;9.588;2022-08-18T00:07:15;6.77;;;6.37;;
8397;SDS011;4236;54.504;9.588;2022-08-18T00:09:45;7.60;;;6.87;;
8397;SDS011;4236;54.504;9.588;2022-08-18T00:12:14;7.33;;;6.87;;
8397;SDS011;4236;54.504;9.588;2022-08-18T00:14:45;8.40;;;7.60;;
8397;SDS011;4236;54.504;9.588;2022-08-18T00:17:13;8.30;;;7.60;;
8397;SDS011;4236;54.504;9.588;2022-08-18T00:19:42;8.30;;;7.70;;
8397;SDS011;4236;54.504;9.588;2022-08-18T00:22:14;11.23;;;7.90;;
8397;SDS011;4236;54.504;9.588;2022-08-18T00:24:43;17.60;;;7.80;;
8397;SDS011;4236;54.504;9.588;2022-08-18T00:27:15;8.60;;;7.83;;
8397;SDS011;4236;54.504;9.588;2022-08-18T00:29:50;11.40;;;8.43;;
8397;SDS011;4236;54.504;9.588;2022-08-18T00:32:19;9.67;;;8.70;;
8397;SDS011;4236;54.504;9.588;2022-08-18T00:34:49;9.80;;;9.00;;
8397;SDS011;4236;54.504;9.588;2022-08-18T00:37:17;8.97;;;8.10;;
8397;SDS011;4236;54.504;9.588;2022-08-18T00:39:45;9.40;;;8.03;;
8397;SDS011;4236;54.504;9.588;2022-08-18T00:42:14;9.63;;;8.67;;
8397;SDS011;4236;54.504;9.588;2022-08-18T00:44:57;9.93;;;8.23;;
8397;SDS011;4236;54.504;9.588;2022-08-18T00:47:27;9.93;;;8.80;;
8397;SDS011;4236;54.504;9.588;2022-08-18T00:50:08;9.30;;;8.33;;
8397;SDS011;4236;54.504;9.588;2022-08-18T00:52:42;10.13;;;8.43;;
8397;SDS011;4236;54.504;9.588;2022-08-18T00:55:14;12.23;;;9.30;;
8397;SDS011;4236;54.504;9.588;2022-08-18T00:57:43;15.33;;;9.57;;
8397;SDS011;4236;54.504;9.588;2022-08-18T01:00:16;13.60;;;9.40;;
8397;SDS011;4236;54.504;9.588;2022-08-18T01:02:45;10.10;;;9.03;;
8397;SDS011;4236;54.504;9.588;2022-08-18T01:05:17;13.57;;;10.17;;
8397;SDS011;4236;54.504;9.588;2022-08-18T01:07:49;14.63;;;11.37;;
8397;SDS011;4236;54.504;9.588;2022-08-18T01:10:18;14.60;;;10.80;;
8397;SDS011;4236;54.504;9.588;2022-08-18T01:12:49;14.90;;;9.87;;
8397;SDS011;4236;54.504;9.588;2022-08-18T01:15:20;11.70;;;10.70;;
8397;SDS011;4236;54.504;9.588;2022-08-18T01:17:55;13.13;;;10.90;;
8397;SDS011;4236;54.504;9.588;2022-08-18T01:20:42;12.23;;;11.10;;
8397;SDS011;4236;54.504;9.588;2022-08-18T01:23:44;12.47;;;11.27;;
8397;SDS011;4236;54.504;9.588;2022-08-18T01:26:14;13.83;;;11.63;;
8397;SDS011;4236;54.504;9.588;2022-08-18T01:28:44;16.63;;;11.43;;
8397;SDS011;4236;54.504;9.588;2022-08-18T01:31:28;15.10;;;11.53;;
8397;SDS011;4236;54.504;9.588;2022-08-18T01:33:59;13.47;;;12.23;;
8397;SDS011;4236;54.504;9.588;2022-08-18T01:36:27;12.87;;;11.57;;
8397;SDS011;4236;54.504;9.588;2022-08-18T01:38:56;17.43;;;11.97;;
8397;SDS011;4236;54.504;9.588;2022-08-18T01:41:24;11.80;;;10.70;;
8397;SDS011;4236;54.504;9.588;2022-08-18T01:43:56;14.00;;;9.90;;
8397;SDS011;4236;54.504;9.588;2022-08-18T01:46:25;13.43;;;11.67;;
8397;SDS011;4236;54.504;9.588;2022-08-18T01:48:54;13.93;;;11.87;;
8397;SDS011;4236;54.504;9.588;2022-08-18T01:51:23;13.23;;;11.90;;
8397;SDS011;4236;54.504;9.588;2022-08-18T01:54:07;13.37;;;11.93;;
8397;SDS011;4236;54.504;9.588;2022-08-18T01:56:37;14.23;;;12.80;;
8397;SDS011;4236;54.504;9.588;2022-08-18T01:59:05;14.90;;;13.50;;
8397;SDS011;4236;54.504;9.588;2022-08-18T02:01:36;19.80;;;14.27;;
8397;SDS011;4236;54.504;9.588;2022-08-18T02:04:14;14.63;;;13.30;;
8397;SDS011;4236;54.504;9.588;2022-08-18T02:07:00;16.40;;;14.53;;
8397;SDS011;4236;54.504;9.588;2022-08-18T02:09:31;16.00;;;14.40;;
8397;SDS011;4236;54.504;9.588;2022-08-18T02:11:59;16.33;;;14.70;;
8397;SDS011;4236;54.504;9.588;2022-08-18T02:14:27;17.57;;;15.40;;
8397;SDS011;4236;54.504;9.588;2022-08-18T02:16:56;19.73;;;17.77;;
8397;SDS011;4236;54.504;9.588;2022-08-18T02:19:31;19.43;;;17.60;;
8397;SDS011;4236;54.504;9.588;2022-08-18T02:21:59;20.77;;;18.60;;
8397;SDS011;4236;54.504;9.588;2022-08-18T02:24:27;23.57;;;18.20;;
8397;SDS011;4236;54.504;9.588;2022-08-18T02:26:57;22.43;;;18.10;;
8397;SDS011;4236;54.504;9.588;2022-08-18T02:29:25;19.27;;;17.27;;
8397;SDS011;4236;54.504;9.588;2022-08-18T02:31:53;19.10;;;17.00;;
8397;SDS011;4236;54.504;9.588;2022-08-18T02:34:20;19.37;;;16.63;;
8397;SDS011;4236;54.504;9.588;2022-08-18T02:36:48;16.87;;;15.23;;
8397;SDS011;4236;54.504;9.588;2022-08-18T02:39:16;19.20;;;16.40;;
8397;SDS011;4236;54.504;9.588;2022-08-18T02:41:44;16.57;;;14.87;;
8397;SDS011;4236;54.504;9.588;2022-08-18T02:44:13;14.63;;;13.23;;
8397;SDS011;4236;54.504;9.588;2022-08-18T02:46:40;16.17;;;12.80;;
8397;SDS011;4236;54.504;9.588;2022-08-18T02:49:08;17.80;;;12.60;;
8397;SDS011;4236;54.504;9.588;2022-08-18T02:51:36;13.33;;;11.57;;
8397;SDS011;4236;54.504;9.588;2022-08-18T02:54:04;12.23;;;11.13;;
8397;SDS011;4236;54.504;9.588;2022-08-18T02:56:34;12.30;;;11.10;;
8397;SDS011;4236;54.504;9.588;2022-08-18T02:59:08;10.47;;;9.57;;
8397;SDS011;4236;54.504;9.588;2022-08-18T03:01:39;11.83;;;10.73;;
8397;SDS011;4236;54.504;9.588;2022-08-18T03:04:10;22.80;;;11.70;;
8397;SDS011;4236;54.504;9.588;2022-08-18T03:06:41;11.40;;;10.50;;
8397;SDS011;4236;54.504;9.588;2022-08-18T03:09:11;12.53;;;11.00;;
8397;SDS011;4236;54.504;9.588;2022-08-18T03:11:39;13.63;;;11.30;;
8397;SDS011;4236;54.504;9.588;2022-08-18T03:14:08;11.00;;;9.60;;
8397;SDS011;4236;54.504;9.588;2022-08-18T03:16:39;13.50;;;10.00;;
8397;SDS011;4236;54.504;9.588;2022-08-18T03:19:20;11.50;;;9.23;;
8397;SDS011;4236;54.504;9.588;2022-08-18T03:21:48;11.07;;;9.90;;
8397;SDS011;4236;54.504;9.588;2022-08-18T03:24:18;11.70;;;10.20;;
8397;SDS011;4236;54.504;9.588;2022-08-18T03:26:48;10.47;;;9.17;;
8397;SDS011;4236;54.504;9.588;2022-08-18T03:29:15;15.23;;;10.63;;
8397;SDS011;4236;54.504;9.588;2022-08-18T03:31:45;17.23;;;11.97;;
8397;SDS011;4236;54.504;9.588;2022-08-18T03:34:13;17.60;;;12.50;;
8397;SDS011;4236;54.504;9.588;2022-08-18T03:36:44;25.27;;;13.23;;
8397;SDS011;4236;54.504;9.588;2022-08-18T03:39:13;18.30;;;12.60;;
8397;SDS011;4236;54.504;9.588;2022-08-18T03:41:41;15.00;;;13.50;;
8397;SDS011;4236;54.504;9.588;2022-08-18T03:44:24;19.97;;;13.27;;
8397;SDS011;4236;54.504;9.588;2022-08-18T03:46:54;16.47;;;14.73;;
8397;SDS011;4236;54.504;9.588;2022-08-18T03:49:22;18.40;;;16.23;;
8397;SDS011;4236;54.504;9.588;2022-08-18T03:51:50;18.57;;;16.60;;
8397;SDS011;4236;54.504;9.588;2022-08-18T03:54:17;23.63;;;18.10;;
8397;SDS011;4236;54.504;9.588;2022-08-18T03:56:45;23.37;;;19.73;;
8397;SDS011;4236;54.504;9.588;2022-08-18T03:59:15;21.80;;;19.50;;
8397;SDS011;4236;54.504;9.588;2022-08-18T04:01:45;22.83;;;19.50;;
8397;SDS011;4236;54.504;9.588;2022-08-18T04:04:17;26.07;;;20.20;;
8397;SDS011;4236;54.504;9.588;2022-08-18T04:06:50;22.80;;;20.43;;
8397;SDS011;4236;54.504;9.588;2022-08-18T04:09:20;25.40;;;21.77;;
8397;SDS011;4236;54.504;9.588;2022-08-18T04:11:49;26.00;;;22.90;;
8397;SDS011;4236;54.504;9.588;2022-08-18T04:14:18;28.70;;;24.47;;
8397;SDS011;4236;54.504;9.588;2022-08-18T04:16:49;22.77;;;20.67;;
8397;SDS011;4236;54.504;9.588;2022-08-18T04:19:19;23.53;;;21.10;;
8397;SDS011;4236;54.504;9.588;2022-08-18T04:21:53;28.40;;;24.50;;
8397;SDS011;4236;54.504;9.588;2022-08-18T04:24:21;22.47;;;20.17;;
8397;SDS011;4236;54.504;9.588;2022-08-18T04:26:51;30.30;;;22.80;;
8397;SDS011;4236;54.504;9.588;2022-08-18T04:29:19;25.30;;;22.70;;
8397;SDS011;4236;54.504;9.588;2022-08-18T04:31:47;26.47;;;22.40;;
8397;SDS011;4236;54.504;9.588;2022-08-18T04:34:16;26.97;;;24.33;;
8397;SDS011;4236;54.504;9.588;2022-08-18T04:36:46;28.40;;;25.37;;
8397;SDS011;4236;54.504;9.588;2022-08-18T04:39:19;26.47;;;23.30;;
8397;SDS011;4236;54.504;9.588;2022-08-18T04:41:48;27.37;;;22.43;;
8397;SDS011;4236;54.504;9.588;2022-08-18T04:44:16;23.47;;;20.73;;
8397;SDS011;4236;54.504;9.588;2022-08-18T04:46:45;22.30;;;20.10;;
8397;SDS011;4236;54.504;9.588;2022-08-18T04:49:15;20.83;;;18.83;;
8397;SDS011;4236;54.504;9.588;2022-08-18T04:51:44;20.03;;;17.87;;
8397;SDS011;4236;54.504;9.588;2022-08-18T04:54:54;20.10;;;18.17;;
8397;SDS011;4236;54.504;9.588;2022-08-18T04:57:21;19.37;;;17.60;;
8397;SDS011;4236;54.504;9.588;2022-08-18T04:59:50;20.33;;;18.17;;
8397;SDS011;4236;54.504;9.588;2022-08-18T05:02:18;19.83;;;16.20;;
8397;SDS011;4236;54.504;9.588;2022-08-18T05:04:49;19.57;;;17.63;;
8397;SDS011;4236;54.504;9.588;2022-08-18T05:07:19;20.67;;;16.57;;
8397;SDS011;4236;54.504;9.588;2022-08-18T05:09:49;18.30;;;16.60;;
8397;SDS011;4236;54.504;9.588;2022-08-18T05:12:17;18.07;;;16.30;;
8397;SDS011;4236;54.504;9.588;2022-08-18T05:14:50;18.67;;;14.27;;
8397;SDS011;4236;54.504;9.588;2022-08-18T05:17:18;16.47;;;14.70;;
8397;SDS011;4236;54.504;9.588;2022-08-18T05:19:46;15.40;;;14.03;;
8397;SDS011;4236;54.504;9.588;2022-08-18T05:22:15;13.60;;;12.17;;
8397;SDS011;4236;54.504;9.588;2022-08-18T05:24:55;13.53;;;12.23;;
8397;SDS011;4236;54.504;9.588;2022-08-18T05:27:23;14.53;;;13.37;;
8397;SDS011;4236;54.504;9.588;2022-08-18T05:29:50;13.03;;;11.63;;
8397;SDS011;4236;54.504;9.588;2022-08-18T05:32:18;11.70;;;10.90;;
8397;SDS011;4236;54.504;9.588;2022-08-18T05:35:06;12.73;;;11.53;;
8397;SDS011;4236;54.504;9.588;2022-08-18T05:37:40;12.83;;;11.63;;
8397;SDS011;4236;54.504;9.588;2022-08-18T05:40:18;11.50;;;10.60;;
8397;SDS011;4236;54.504;9.588;2022-08-18T05:42:49;13.13;;;12.10;;
8397;SDS011;4236;54.504;9.588;2022-08-18T05:45:18;13.40;;;11.80;;
8397;SDS011;4236;54.504;9.588;2022-08-18T05:47:46;13.37;;;12.20;;
8397;SDS011;4236;54.504;9.588;2022-08-18T05:50:16;13.20;;;11.93;;
8397;SDS011;4236;54.504;9.588;2022-08-18T05:52:49;13.33;;;12.20;;
8397;SDS011;4236;54.504;9.588;2022-08-18T05:55:21;14.93;;;12.00;;
8397;SDS011;4236;54.504;9.588;2022-08-18T05:58:14;16.00;;;11.17;;
8397;SDS011;4236;54.504;9.588;2022-08-18T06:00:46;12.93;;;11.80;;
8397;SDS011;4236;54.504;9.588;2022-08-18T06:03:25;12.57;;;11.57;;
8397;SDS011;4236;54.504;9.588;2022-08-18T06:06:12;12.03;;;11.13;;
8397;SDS011;4236;54.504;9.588;2022-08-18T06:08:46;13.03;;;11.93;;
8397;SDS011;4236;54.504;9.588;2022-08-18T06:11:26;11.20;;;10.10;;
8397;SDS011;4236;54.504;9.588;2022-08-18T06:13:54;12.90;;;11.80;;
8397;SDS011;4236;54.504;9.588;2022-08-18T06:16:27;10.90;;;10.00;;
8397;SDS011;4236;54.504;9.588;2022-08-18T06:19:08;11.57;;;10.70;;
8397;SDS011;4236;54.504;9.588;2022-08-18T06:21:50;13.03;;;11.97;;
8397;SDS011;4236;54.504;9.588;2022-08-18T06:24:25;10.97;;;9.97;;
8397;SDS011;4236;54.504;9.588;2022-08-18T06:27:05;12.67;;;11.67;;
8397;SDS011;4236;54.504;9.588;2022-08-18T06:29:44;12.50;;;11.00;;
8397;SDS011;4236;54.504;9.588;2022-08-18T06:32:29;10.93;;;9.90;;
8397;SDS011;4236;54.504;9.588;2022-08-18T06:35:13;11.40;;;10.70;;
8397;SDS011;4236;54.504;9.588;2022-08-18T06:37:47;12.23;;;11.27;;
8397;SDS011;4236;54.504;9.588;2022-08-18T06:40:40;13.37;;;11.87;;
8397;SDS011;4236;54.504;9.588;2022-08-18T06:43:11;12.77;;;11.67;;
8397;SDS011;4236;54.504;9.588;2022-08-18T06:45:43;12.27;;;11.27;;
8397;SDS011;4236;54.504;9.588;2022-08-18T06:48:16;11.93;;;11.03;;
8397;SDS011;4236;54.504;9.588;2022-08-18T06:50:52;11.40;;;10.50;;
8397;SDS011;4236;54.504;9.588;2022-08-18T06:53:22;10.73;;;10.00;;
8397;SDS011;4236;54.504;9.588;2022-08-18T06:56:20;10.87;;;10.07;;
8397;SDS011;4236;54.504;9.588;2022-08-18T06:58:53;11.13;;;10.30;;
8397;SDS011;4236;54.504;9.588;2022-08-18T07:01:39;10.63;;;9.70;;
8397;SDS011;4236;54.504;9.588;2022-08-18T07:04:07;10.80;;;9.90;;
8397;SDS011;4236;54.504;9.588;2022-08-18T07:06:34;13.33;;;12.03;;
8397;SDS011;4236;54.504;9.588;2022-08-18T07:09:16;11.63;;;10.83;;
8397;SDS011;4236;54.504;9.588;2022-08-18T07:14:33;13.27;;;10.83;;
8397;SDS011;4236;54.504;9.588;2022-08-18T07:17:10;12.33;;;11.33;;
8397;SDS011;4236;54.504;9.588;2022-08-18T07:19:39;12.07;;;11.10;;
8397;SDS011;4236;54.504;9.588;2022-08-18T07:22:08;12.07;;;11.17;;
8397;SDS011;4236;54.504;9.588;2022-08-18T07:24:38;12.47;;;11.30;;
8397;SDS011;4236;54.504;9.588;2022-08-18T07:27:09;11.07;;;10.37;;
8397;SDS011;4236;54.504;9.588;2022-08-18T07:29:41;10.60;;;10.00;;
8397;SDS011;4236;54.504;9.588;2022-08-18T07:32:27;10.27;;;9.63;;
8397;SDS011;4236;54.504;9.588;2022-08-18T07:35:00;11.60;;;10.60;;
8397;SDS011;4236;54.504;9.588;2022-08-18T07:37:30;11.30;;;10.30;;
8397;SDS011;4236;54.504;9.588;2022-08-18T07:40:09;11.70;;;10.30;;
8397;SDS011;4236;54.504;9.588;2022-08-18T07:42:46;10.83;;;10.00;;
8397;SDS011;4236;54.504;9.588;2022-08-18T07:45:30;11.67;;;10.73;;
8397;SDS011;4236;54.504;9.588;2022-08-18T07:48:04;10.23;;;9.53;;
8397;SDS011;4236;54.504;9.588;2022-08-18T07:50:58;11.60;;;10.60;;
8397;SDS011;4236;54.504;9.588;2022-08-18T07:53:37;11.17;;;10.50;;
8397;SDS011;4236;54.504;9.588;2022-08-18T07:56:22;10.33;;;9.50;;
8397;SDS011;4236;54.504;9.588;2022-08-18T07:58:59;11.00;;;10.30;;
8397;SDS011;4236;54.504;9.588;2022-08-18T08:01:37;11.97;;;11.17;;
8397;SDS011;4236;54.504;9.588;2022-08-18T08:04:12;11.43;;;10.47;;
8397;SDS011;4236;54.504;9.588;2022-08-18T08:06:52;10.90;;;10.20;;
8397;SDS011;4236;54.504;9.588;2022-08-18T08:09:49;12.90;;;11.83;;
8397;SDS011;4236;54.504;9.588;2022-08-18T08:12:25;10.93;;;10.33;;
8397;SDS011;4236;54.504;9.588;2022-08-18T08:15:04;12.90;;;11.87;;
8397;SDS011;4236;54.504;9.588;2022-08-18T08:17:47;10.60;;;9.90;;
8397;SDS011;4236;54.504;9.588;2022-08-18T08:20:21;10.60;;;9.90;;
8397;SDS011;4236;54.504;9.588;2022-08-18T08:23:00;11.13;;;10.33;;
8397;SDS011;4236;54.504;9.588;2022-08-18T08:25:36;11.57;;;10.77;;
8397;SDS011;4236;54.504;9.588;2022-08-18T08:28:16;12.10;;;11.00;;
8397;SDS011;4236;54.504;9.588;2022-08-18T08:30:54;11.00;;;10.30;;
8397;SDS011;4236;54.504;9.588;2022-08-18T08:33:51;11.77;;;11.13;;
8397;SDS011;4236;54.504;9.588;2022-08-18T08:36:32;11.80;;;10.80;;
8397;SDS011;4236;54.504;9.588;2022-08-18T08:39:03;11.73;;;10.60;;
8397;SDS011;4236;54.504;9.588;2022-08-18T08:41:34;13.00;;;10.80;;
8397;SDS011;4236;54.504;9.588;2022-08-18T08:44:07;11.10;;;10.30;;
8397;SDS011;4236;54.504;9.588;2022-08-18T08:46:41;11.03;;;10.37;;
8397;SDS011;4236;54.504;9.588;2022-08-18T08:49:18;14.80;;;13.00;;
8397;SDS011;4236;54.504;9.588;2022-08-18T08:51:57;10.03;;;9.43;;
8397;SDS011;4236;54.504;9.588;2022-08-18T08:54:33;9.90;;;9.30;;
8397;SDS011;4236;54.504;9.588;2022-08-18T08:57:10;12.63;;;11.73;;
8397;SDS011;4236;54.504;9.588;2022-08-18T08:59:40;11.50;;;10.80;;
8397;SDS011;4236;54.504;9.588;2022-08-18T09:02:32;11.20;;;10.40;;
8397;SDS011;4236;54.504;9.588;2022-08-18T09:05:16;11.23;;;10.40;;
8397;SDS011;4236;54.504;9.588;2022-08-18T09:07:54;10.80;;;10.20;;
8397;SDS011;4236;54.504;9.588;2022-08-18T09:10:48;12.13;;;11.20;;
8397;SDS011;4236;54.504;9.588;2022-08-18T09:13:38;12.17;;;11.37;;
8397;SDS011;4236;54.504;9.588;2022-08-18T09:16:26;12.77;;;11.50;;
8397;SDS011;4236;54.504;9.588;2022-08-18T09:19:15;12.80;;;11.90;;
8397;SDS011;4236;54.504;9.588;2022-08-18T09:21:58;13.20;;;12.23;;
8397;SDS011;4236;54.504;9.588;2022-08-18T09:24:31;11.57;;;10.77;;
8397;SDS011;4236;54.504;9.588;2022-08-18T09:27:13;11.10;;;10.30;;
8397;SDS011;4236;54.504;9.588;2022-08-18T09:29:52;10.30;;;9.70;;
8397;SDS011;4236;54.504;9.588;2022-08-18T09:32:29;11.00;;;10.30;;
8397;SDS011;4236;54.504;9.588;2022-08-18T09:35:10;13.03;;;12.20;;
8397;SDS011;4236;54.504;9.588;2022-08-18T09:37:52;10.90;;;10.20;;
8397;SDS011;4236;54.504;9.588;2022-08-18T09:40:46;11.50;;;10.50;;
8397;SDS011;4236;54.504;9.588;2022-08-18T09:43:37;11.73;;;10.63;;
8397;SDS011;4236;54.504;9.588;2022-08-18T09:55:38;12.60;;;11.70;;
8397;SDS011;4236;54.504;9.588;2022-08-18T09:58:18;12.77;;;11.90;;
8397;SDS011;4236;54.504;9.588;2022-08-18T10:04:18;13.27;;;12.17;;
8397;SDS011;4236;54.504;9.588;2022-08-18T10:09:49;12.73;;;12.03;;
8397;SDS011;4236;54.504;9.588;2022-08-18T10:12:54;12.80;;;12.10;;
8397;SDS011;4236;54.504;9.588;2022-08-18T10:15:34;12.27;;;11.47;;
8397;SDS011;4236;54.504;9.588;2022-08-18T10:18:19;13.03;;;12.03;;
8397;SDS011;4236;54.504;9.588;2022-08-18T10:20:59;12.53;;;11.63;;
8397;SDS011;4236;54.504;9.588;2022-08-18T10:29:44;13.60;;;12.50;;
8397;SDS011;4236;54.504;9.588;2022-08-18T10:38:36;14.60;;;13.30;;
8397;SDS011;4236;54.504;9.588;2022-08-18T10:41:26;13.30;;;12.53;;
8397;SDS011;4236;54.504;9.588;2022-08-18T10:43:56;13.60;;;12.57;;
8397;SDS011;4236;54.504;9.588;2022-08-18T10:46:28;12.90;;;12.10;;
8397;SDS011;4236;54.504;9.588;2022-08-18T10:49:15;14.47;;;13.30;;
8397;SDS011;4236;54.504;9.588;2022-08-18T10:55:03;13.53;;;12.67;;
8397;SDS011;4236;54.504;9.588;2022-08-18T11:00:36;14.83;;;13.63;;
8397;SDS011;4236;54.504;9.588;2022-08-18T11:03:15;14.43;;;13.40;;
8397;SDS011;4236;54.504;9.588;2022-08-18T11:06:15;13.60;;;12.50;;
8397;SDS011;4236;54.504;9.588;2022-08-18T11:08:47;14.53;;;13.50;;
8397;SDS011;4236;54.504;9.588;2022-08-18T11:11:24;12.97;;;12.07;;
8397;SDS011;4236;54.504;9.588;2022-08-18T11:14:07;12.50;;;11.73;;
8397;SDS011;4236;54.504;9.588;2022-08-18T11:16:44;13.40;;;12.57;;
8397;SDS011;4236;54.504;9.588;2022-08-18T11:19:21;12.13;;;11.30;;
8397;SDS011;4236;54.504;9.588;2022-08-18T11:21:50;13.53;;;12.63;;
8397;SDS011;4236;54.504;9.588;2022-08-18T11:24:20;14.70;;;13.50;;
8397;SDS011;4236;54.504;9.588;2022-08-18T11:26:51;14.00;;;12.83;;
8397;SDS011;4236;54.504;9.588;2022-08-18T11:29:22;13.07;;;12.17;;
8397;SDS011;4236;54.504;9.588;2022-08-18T11:31:59;12.90;;;12.00;;
8397;SDS011;4236;54.504;9.588;2022-08-18T11:34:38;12.93;;;12.00;;
8397;SDS011;4236;54.504;9.588;2022-08-18T11:37:30;12.03;;;11.23;;
8397;SDS011;4236;54.504;9.588;2022-08-18T11:40:28;11.97;;;11.17;;
8397;SDS011;4236;54.504;9.588;2022-08-18T11:43:23;14.00;;;13.10;;
8397;SDS011;4236;54.504;9.588;2022-08-18T11:46:10;11.80;;;11.10;;
8397;SDS011;4236;54.504;9.588;2022-08-18T11:48:42;12.83;;;12.03;;
8397;SDS011;4236;54.504;9.588;2022-08-18T11:51:21;12.10;;;10.93;;
8397;SDS011;4236;54.504;9.588;2022-08-18T11:53:53;11.80;;;11.00;;
8397;SDS011;4236;54.504;9.588;2022-08-18T11:56:26;13.40;;;12.50;;
8397;SDS011;4236;54.504;9.588;2022-08-18T11:58:58;15.23;;;13.33;;
8397;SDS011;4236;54.504;9.588;2022-08-18T12:01:28;13.93;;;12.93;;
8397;SDS011;4236;54.504;9.588;2022-08-18T12:04:09;14.17;;;12.97;;
8397;SDS011;4236;54.504;9.588;2022-08-18T12:06:55;13.77;;;12.67;;
8397;SDS011;4236;54.504;9.588;2022-08-18T12:09:37;14.43;;;13.53;;
8397;SDS011;4236;54.504;9.588;2022-08-18T12:12:29;15.23;;;14.10;;
8397;SDS011;4236;54.504;9.588;2022-08-18T12:15:00;14.70;;;13.50;;
8397;SDS011;4236;54.504;9.588;2022-08-18T12:17:42;15.00;;;13.90;;
8397;SDS011;4236;54.504;9.588;2022-08-18T12:20:17;13.97;;;12.70;;
8397;SDS011;4236;54.504;9.588;2022-08-18T12:22:46;13.10;;;12.07;;
8397;SDS011;4236;54.504;9.588;2022-08-18T12:25:15;12.90;;;12.00;;
8397;SDS011;4236;54.504;9.588;2022-08-18T12:27:50;14.43;;;13.47;;
8397;SDS011;4236;54.504;9.588;2022-08-18T12:30:18;14.70;;;13.70;;
8397;SDS011;4236;54.504;9.588;2022-08-18T12:32:46;14.63;;;13.53;;
8397;SDS011;4236;54.504;9.588;2022-08-18T12:35:31;19.40;;;13.57;;
8397;SDS011;4236;54.504;9.588;2022-08-18T12:38:01;13.43;;;12.30;;
8397;SDS011;4236;54.504;9.588;2022-08-18T12:40:39;14.97;;;13.73;;
8397;SDS011;4236;54.504;9.588;2022-08-18T12:43:07;15.37;;;13.77;;
8397;SDS011;4236;54.504;9.588;2022-08-18T12:45:36;18.03;;;16.53;;
8397;SDS011;4236;54.504;9.588;2022-08-18T12:48:04;17.50;;;16.00;;
8397;SDS011;4236;54.504;9.588;2022-08-18T12:50:33;17.30;;;15.70;;
8397;SDS011;4236;54.504;9.588;2022-08-18T12:53:20;15.67;;;14.53;;
8397;SDS011;4236;54.504;9.588;2022-08-18T12:56:11;18.97;;;17.03;;
8397;SDS011;4236;54.504;9.588;2022-08-18T12:58:45;16.00;;;15.00;;
8397;SDS011;4236;54.504;9.588;2022-08-18T13:01:13;18.03;;;16.73;;
8397;SDS011;4236;54.504;9.588;2022-08-18T13:03:43;16.00;;;14.77;;
8397;SDS011;4236;54.504;9.588;2022-08-18T13:06:32;15.30;;;14.20;;
8397;SDS011;4236;54.504;9.588;2022-08-18T13:09:07;17.90;;;16.50;;
8397;SDS011;4236;54.504;9.588;2022-08-18T13:11:41;16.30;;;15.20;;
8397;SDS011;4236;54.504;9.588;2022-08-18T13:14:09;18.43;;;17.03;;
8397;SDS011;4236;54.504;9.588;2022-08-18T13:16:38;16.20;;;14.90;;
8397;SDS011;4236;54.504;9.588;2022-08-18T13:19:20;18.07;;;16.27;;
8397;SDS011;4236;54.504;9.588;2022-08-18T13:21:49;14.57;;;13.57;;
8397;SDS011;4236;54.504;9.588;2022-08-18T13:24:18;15.43;;;14.27;;
8397;SDS011;4236;54.504;9.588;2022-08-18T13:26:47;17.70;;;16.50;;
8397;SDS011;4236;54.504;9.588;2022-08-18T13:29:17;16.20;;;14.90;;
8397;SDS011;4236;54.504;9.588;2022-08-18T13:31:46;14.70;;;13.60;;
8397;SDS011;4236;54.504;9.588;2022-08-18T13:34:22;16.00;;;14.60;;
8397;SDS011;4236;54.504;9.588;2022-08-18T13:36:55;17.87;;;16.47;;
8397;SDS011;4236;54.504;9.588;2022-08-18T13:39:24;16.10;;;14.87;;
8397;SDS011;4236;54.504;9.588;2022-08-18T13:41:59;16.63;;;15.23;;
8397;SDS011;4236;54.504;9.588;2022-08-18T13:44:48;15.37;;;14.33;;
8397;SDS011;4236;54.504;9.588;2022-08-18T13:47:18;14.47;;;13.47;;
8397;SDS011;4236;54.504;9.588;2022-08-18T13:49:47;15.40;;;14.10;;
8397;SDS011;4236;54.504;9.588;2022-08-18T13:52:24;13.80;;;12.60;;
8397;SDS011;4236;54.504;9.588;2022-08-18T13:55:01;13.07;;;12.17;;
8397;SDS011;4236;54.504;9.588;2022-08-18T13:57:37;15.30;;;14.10;;
8397;SDS011;4236;54.504;9.588;2022-08-18T14:00:08;15.73;;;14.63;;
8397;SDS011;4236;54.504;9.588;2022-08-18T14:02:45;16.97;;;15.67;;
8397;SDS011;4236;54.504;9.588;2022-08-18T14:05:17;15.30;;;13.80;;
8397;SDS011;4236;54.504;9.588;2022-08-18T14:07:45;13.43;;;12.53;;
8397;SDS011;4236;54.504;9.588;2022-08-18T14:10:15;13.13;;;12.10;;
8397;SDS011;4236;54.504;9.588;2022-08-18T14:12:43;14.77;;;13.70;;
8397;SDS011;4236;54.504;9.588;2022-08-18T14:15:13;16.13;;;14.77;;
8397;SDS011;4236;54.504;9.588;2022-08-18T14:17:41;18.80;;;17.23;;
8397;SDS011;4236;54.504;9.588;2022-08-18T14:20:09;14.30;;;13.20;;
8397;SDS011;4236;54.504;9.588;2022-08-18T14:22:55;18.33;;;14.23;;
8397;SDS011;4236;54.504;9.588;2022-08-18T14:25:48;16.23;;;14.83;;
8397;SDS011;4236;54.504;9.588;2022-08-18T14:28:53;16.60;;;15.40;;
8397;SDS011;4236;54.504;9.588;2022-08-18T14:31:20;11.83;;;11.00;;
8397;SDS011;4236;54.504;9.588;2022-08-18T14:33:49;14.30;;;13.10;;
8397;SDS011;4236;54.504;9.588;2022-08-18T14:36:20;12.90;;;11.80;;
8397;SDS011;4236;54.504;9.588;2022-08-18T14:38:55;15.87;;;14.60;;
8397;SDS011;4236;54.504;9.588;2022-08-18T14:41:25;14.17;;;13.07;;
8397;SDS011;4236;54.504;9.588;2022-08-18T14:43:54;14.17;;;13.00;;
8397;SDS011;4236;54.504;9.588;2022-08-18T14:46:38;13.27;;;12.43;;
8397;SDS011;4236;54.504;9.588;2022-08-18T14:49:17;12.80;;;11.90;;
8397;SDS011;4236;54.504;9.588;2022-08-18T14:51:54;15.93;;;14.33;;
8397;SDS011;4236;54.504;9.588;2022-08-18T14:54:22;15.70;;;14.40;;
8397;SDS011;4236;54.504;9.588;2022-08-18T14:56:55;13.50;;;12.60;;
8397;SDS011;4236;54.504;9.588;2022-08-18T14:59:23;13.57;;;12.70;;
8397;SDS011;4236;54.504;9.588;2022-08-18T15:01:53;13.50;;;12.63;;
8397;SDS011;4236;54.504;9.588;2022-08-18T15:04:21;15.10;;;13.90;;
8397;SDS011;4236;54.504;9.588;2022-08-18T15:06:49;14.80;;;13.73;;
8397;SDS011;4236;54.504;9.588;2022-08-18T15:09:23;13.90;;;12.80;;
8397;SDS011;4236;54.504;9.588;2022-08-18T15:11:52;14.07;;;12.90;;
8397;SDS011;4236;54.504;9.588;2022-08-18T15:14:23;15.20;;;14.10;;
8397;SDS011;4236;54.504;9.588;2022-08-18T15:16:59;14.10;;;13.00;;
8397;SDS011;4236;54.504;9.588;2022-08-18T15:19:27;13.87;;;12.97;;
8397;SDS011;4236;54.504;9.588;2022-08-18T15:22:15;12.97;;;11.90;;
8397;SDS011;4236;54.504;9.588;2022-08-18T15:25:01;14.30;;;13.27;;
8397;SDS011;4236;54.504;9.588;2022-08-18T15:27:50;15.03;;;13.73;;
8397;SDS011;4236;54.504;9.588;2022-08-18T15:30:18;17.30;;;15.90;;
8397;SDS011;4236;54.504;9.588;2022-08-18T15:32:47;16.27;;;15.00;;
8397;SDS011;4236;54.504;9.588;2022-08-18T15:35:16;14.37;;;13.20;;
8397;SDS011;4236;54.504;9.588;2022-08-18T15:37:45;14.03;;;13.13;;
8397;SDS011;4236;54.504;9.588;2022-08-18T15:40:18;12.83;;;11.93;;
8397;SDS011;4236;54.504;9.588;2022-08-18T15:43:06;14.77;;;13.70;;
8397;SDS011;4236;54.504;9.588;2022-08-18T15:45:36;13.70;;;12.50;;
8397;SDS011;4236;54.504;9.588;2022-08-18T15:48:08;14.10;;;13.00;;
8397;SDS011;4236;54.504;9.588;2022-08-18T15:50:38;11.93;;;11.10;;
8397;SDS011;4236;54.504;9.588;2022-08-18T15:53:07;14.30;;;13.30;;
8397;SDS011;4236;54.504;9.588;2022-08-18T15:55:37;13.30;;;12.27;;
8397;SDS011;4236;54.504;9.588;2022-08-18T15:58:08;12.87;;;11.90;;
8397;SDS011;4236;54.504;9.588;2022-08-18T16:00:38;14.50;;;13.50;;
8397;SDS011;4236;54.504;9.588;2022-08-18T16:03:10;14.70;;;13.50;;
8397;SDS011;4236;54.504;9.588;2022-08-18T16:05:40;15.27;;;13.97;;
8397;SDS011;4236;54.504;9.588;2022-08-18T16:08:15;14.93;;;13.83;;
8397;SDS011;4236;54.504;9.588;2022-08-18T16:10:43;15.53;;;14.17;;
8397;SDS011;4236;54.504;9.588;2022-08-18T16:13:13;14.53;;;13.33;;